createdAt,value
2023-02-19T00:01:42.389Z,3.83
2023-02-19T00:04:14.181Z,3.40
2023-02-19T00:06:40.437Z,3.53
2023-02-19T00:09:06.513Z,3.97
2023-02-19T00:11:33.802Z,3.90
2023-02-19T00:14:01.153Z,3.90
2023-02-19T00:16:38.417Z,3.70
2023-02-19T00:19:06.981Z,3.43
2023-02-19T00:21:33.400Z,3.90
2023-02-19T00:24:01.604Z,5.13
2023-02-19T00:26:27.991Z,4.30
2023-02-19T00:28:55.167Z,3.90
2023-02-19T00:31:24.550Z,3.50
2023-02-19T00:33:53.391Z,3.60
2023-02-19T00:36:19.964Z,3.80
2023-02-19T00:38:46.621Z,4.50
2023-02-19T00:41:22.323Z,3.53
2023-02-19T00:43:50.656Z,3.17
2023-02-19T00:46:18.896Z,3.70
2023-02-19T00:48:45.072Z,3.33
2023-02-19T00:51:11.603Z,3.13
2023-02-19T00:53:37.987Z,3.23
2023-02-19T00:56:04.572Z,3.23
2023-02-19T00:58:30.646Z,2.93
2023-02-19T01:00:56.938Z,3.40
2023-02-19T01:03:23.168Z,3.03
2023-02-19T01:05:50.008Z,2.87
2023-02-19T01:08:16.460Z,3.17
2023-02-19T01:10:42.918Z,3.27
2023-02-19T01:13:09.213Z,3.60
2023-02-19T01:15:35.746Z,2.90
2023-02-19T01:18:01.829Z,3.10
2023-02-19T01:20:28.110Z,3.60
2023-02-19T01:22:54.261Z,3.50
2023-02-19T01:25:20.395Z,3.00
2023-02-19T01:27:46.447Z,3.63
2023-02-19T01:30:12.756Z,7.03
2023-02-19T01:32:38.796Z,3.00
2023-02-19T01:35:05.555Z,2.83
2023-02-19T01:37:31.675Z,2.77
2023-02-19T01:39:57.745Z,2.70
2023-02-19T01:42:23.827Z,2.70
2023-02-19T01:45:21.382Z,3.40
2023-02-19T01:48:05.785Z,2.30
2023-02-19T01:50:39.823Z,3.10
2023-02-19T01:53:07.484Z,2.70
2023-02-19T01:55:34.316Z,2.07
2023-02-19T01:58:01.163Z,2.20
2023-02-19T02:00:27.511Z,1.93
2023-02-19T02:02:55.683Z,1.83
2023-02-19T02:05:42.232Z,2.10
2023-02-19T02:08:26.786Z,1.60
2023-02-19T02:10:53.323Z,1.67
2023-02-19T02:13:19.509Z,2.63
2023-02-19T02:16:17.318Z,1.60
2023-02-19T02:18:59.348Z,2.03
2023-02-19T02:21:52.924Z,1.63
2023-02-19T02:24:37.324Z,1.10
2023-02-19T02:27:42.016Z,1.13
2023-02-19T02:30:17.288Z,1.00
2023-02-19T02:33:20.653Z,1.13
2023-02-19T02:35:52.747Z,1.23
2023-02-19T02:38:21.760Z,1.33
2023-02-19T02:40:47.873Z,0.90
2023-02-19T02:43:14.006Z,1.10
2023-02-19T02:45:40.152Z,2.40
2023-02-19T02:48:29.858Z,1.13
2023-02-19T02:51:03.235Z,2.30
2023-02-19T02:53:55.401Z,1.23
2023-02-19T02:56:21.939Z,1.20
2023-02-19T02:58:48.935Z,1.17
2023-02-19T03:01:37.680Z,1.47
2023-02-19T03:04:12.610Z,1.10
2023-02-19T03:06:39.617Z,1.43
2023-02-19T03:09:11.737Z,1.23
2023-02-19T03:11:58.867Z,1.37
2023-02-19T03:14:58.053Z,1.50
2023-02-19T03:17:47.807Z,1.50
2023-02-19T03:20:15.590Z,1.50
2023-02-19T03:22:42.647Z,1.70
2023-02-19T03:25:28.350Z,1.40
2023-02-19T03:27:57.094Z,1.47
2023-02-19T03:30:26.581Z,1.83
2023-02-19T03:33:10.838Z,1.57
2023-02-19T03:35:46.889Z,1.63
2023-02-19T03:38:19.879Z,1.93
2023-02-19T03:41:15.022Z,1.23
2023-02-19T03:43:47.963Z,1.27
2023-02-19T03:46:22.600Z,1.40
2023-02-19T03:48:58.501Z,1.70
2023-02-19T03:51:38.313Z,2.00
2023-02-19T03:54:17.892Z,1.73
2023-02-19T03:56:53.803Z,1.93
2023-02-19T03:59:42.531Z,5.00
2023-02-19T04:02:15.309Z,2.37
2023-02-19T04:05:03.824Z,2.17
2023-02-19T04:07:33.047Z,1.27
2023-02-19T04:09:59.255Z,1.37
2023-02-19T04:12:25.452Z,1.20
2023-02-19T04:15:00.119Z,1.10
2023-02-19T04:17:30.747Z,1.10
2023-02-19T04:19:58.681Z,1.00
2023-02-19T04:22:25.164Z,1.47
2023-02-19T04:24:52.815Z,0.90
2023-02-19T04:27:19.152Z,1.10
2023-02-19T04:29:45.306Z,1.07
2023-02-19T04:32:12.506Z,0.97
2023-02-19T04:34:38.792Z,1.63
2023-02-19T04:37:05.428Z,2.33
2023-02-19T04:39:31.746Z,1.20
2023-02-19T04:41:57.826Z,3.60
2023-02-19T04:44:23.975Z,1.40
2023-02-19T04:46:50.102Z,2.30
2023-02-19T04:49:16.348Z,1.80
2023-02-19T04:51:42.483Z,1.30
2023-02-19T04:54:08.750Z,1.10
2023-02-19T04:56:34.928Z,1.60
2023-02-19T04:59:01.038Z,1.20
2023-02-19T05:01:27.149Z,1.10
2023-02-19T05:03:53.195Z,1.20
2023-02-19T05:06:19.425Z,2.13
2023-02-19T05:08:45.623Z,1.10
2023-02-19T05:11:12.682Z,1.40
2023-02-19T05:13:39.753Z,1.43
2023-02-19T05:16:08.945Z,1.10
2023-02-19T05:18:35.160Z,1.70
2023-02-19T05:21:01.574Z,2.70
2023-02-19T05:23:27.935Z,2.23
2023-02-19T05:25:54.042Z,2.00
2023-02-19T05:28:20.442Z,2.00
2023-02-19T05:30:51.024Z,2.83
2023-02-19T05:33:19.460Z,3.57
2023-02-19T05:35:47.428Z,3.43
2023-02-19T05:38:14.270Z,2.70
2023-02-19T05:40:40.633Z,2.87
2023-02-19T05:43:07.147Z,2.60
2023-02-19T05:45:33.441Z,3.30
2023-02-19T05:47:59.777Z,3.70
2023-02-19T05:50:26.280Z,3.10
2023-02-19T05:52:52.437Z,3.20
2023-02-19T05:55:18.571Z,3.13
2023-02-19T05:57:46.372Z,2.87
2023-02-19T06:00:14.938Z,2.80
2023-02-19T06:02:41.324Z,3.10
2023-02-19T06:05:07.899Z,2.90
2023-02-19T06:07:34.171Z,2.60
2023-02-19T06:10:00.418Z,3.50
2023-02-19T06:12:26.509Z,5.40
2023-02-19T06:14:52.587Z,3.27
2023-02-19T06:17:18.884Z,3.27
2023-02-19T06:19:44.918Z,2.70
2023-02-19T06:22:10.996Z,3.00
2023-02-19T06:24:37.055Z,2.50
2023-02-19T06:27:06.825Z,2.30
2023-02-19T06:29:33.364Z,2.70
2023-02-19T06:32:00.297Z,2.00
2023-02-19T06:34:26.435Z,2.70
2023-02-19T06:36:52.496Z,2.10
2023-02-19T06:39:18.628Z,4.43
2023-02-19T06:41:44.692Z,3.30
2023-02-19T06:44:10.785Z,2.20
2023-02-19T06:46:36.979Z,3.20
2023-02-19T06:49:04.212Z,2.37
2023-02-19T06:51:32.081Z,2.30
2023-02-19T06:53:59.241Z,2.77
2023-02-19T06:56:28.374Z,2.53
2023-02-19T06:58:57.257Z,2.47
2023-02-19T07:01:23.564Z,2.60
2023-02-19T07:03:50.210Z,2.80
2023-02-19T07:06:16.322Z,2.03
2023-02-19T07:08:42.393Z,2.70
2023-02-19T07:11:08.609Z,3.00
2023-02-19T07:13:34.769Z,2.30
2023-02-19T07:16:04.610Z,3.30
2023-02-19T07:18:31.221Z,2.90
2023-02-19T07:21:04.728Z,2.33
2023-02-19T07:23:31.201Z,3.00
2023-02-19T07:25:57.479Z,2.87
2023-02-19T07:28:23.743Z,2.67
2023-02-19T07:30:49.866Z,2.33
2023-02-19T07:33:16.086Z,2.60
2023-02-19T07:35:49.145Z,2.17
2023-02-19T07:38:16.562Z,2.60
2023-02-19T07:40:50.274Z,2.23
2023-02-19T07:43:16.327Z,2.90
2023-02-19T07:45:42.476Z,2.87
2023-02-19T07:48:08.589Z,2.00
2023-02-19T07:50:34.638Z,1.97
2023-02-19T07:53:00.692Z,1.70
2023-02-19T07:55:26.836Z,1.80
2023-02-19T07:57:52.900Z,1.70
2023-02-19T08:00:19.409Z,1.73
2023-02-19T08:03:01.204Z,1.80
2023-02-19T08:05:34.393Z,4.30
2023-02-19T08:08:00.541Z,2.23
2023-02-19T08:10:45.893Z,2.00
2023-02-19T08:13:19.789Z,2.07
2023-02-19T08:15:46.454Z,2.30
2023-02-19T08:18:13.704Z,2.70
2023-02-19T08:20:40.218Z,19.90
2023-02-19T08:23:06.583Z,5.83
2023-02-19T08:25:33.266Z,2.90
2023-02-19T08:28:02.227Z,3.30
2023-02-19T08:30:29.469Z,2.40
2023-02-19T08:32:55.737Z,2.47
2023-02-19T08:35:22.132Z,2.50
2023-02-19T08:37:48.227Z,2.30
2023-02-19T08:40:14.409Z,4.07
2023-02-19T08:42:40.568Z,2.37
2023-02-19T08:45:07.099Z,2.43
2023-02-19T08:47:36.520Z,2.70
2023-02-19T08:50:04.358Z,4.50
2023-02-19T08:52:30.858Z,2.37
2023-02-19T08:54:57.560Z,3.70
2023-02-19T08:57:24.324Z,2.07
2023-02-19T08:59:50.688Z,3.37
2023-02-19T09:02:16.733Z,2.90
2023-02-19T09:04:43.021Z,1.70
2023-02-19T09:07:10.409Z,1.80
2023-02-19T09:09:37.418Z,1.17
2023-02-19T09:12:04.971Z,1.20
2023-02-19T09:14:32.494Z,1.00
2023-02-19T09:16:58.536Z,0.93
2023-02-19T09:19:25.677Z,1.10
2023-02-19T09:21:51.752Z,0.90
2023-02-19T09:24:17.989Z,0.80
2023-02-19T09:26:44.126Z,0.80
2023-02-19T09:29:10.512Z,0.80
2023-02-19T09:31:36.906Z,0.90
2023-02-19T09:34:03.125Z,0.90
2023-02-19T09:36:29.144Z,2.43
2023-02-19T09:38:55.216Z,0.80
2023-02-19T09:41:46.714Z,0.90
2023-02-19T09:44:15.462Z,0.90
2023-02-19T09:46:42.960Z,2.50
2023-02-19T09:49:26.152Z,0.90
2023-02-19T09:51:59.535Z,0.80
2023-02-19T09:54:28.458Z,0.80
2023-02-19T09:56:55.886Z,1.37
2023-02-19T09:59:25.542Z,4.40
2023-02-19T10:01:57.483Z,0.90
2023-02-19T10:04:23.564Z,0.80
2023-02-19T10:06:50.802Z,0.90
2023-02-19T10:09:23.217Z,0.90
2023-02-19T10:11:49.543Z,0.90
2023-02-19T10:14:24.134Z,0.90
2023-02-19T10:16:50.526Z,0.80
2023-02-19T10:19:16.662Z,0.80
2023-02-19T10:21:43.106Z,0.90
2023-02-19T10:24:17.136Z,0.90
2023-02-19T10:26:43.251Z,1.40
2023-02-19T10:29:09.694Z,0.90
2023-02-19T10:31:35.852Z,0.80
2023-02-19T10:34:02.404Z,1.63
2023-02-19T10:36:32.633Z,1.77
2023-02-19T10:39:00.439Z,0.90
2023-02-19T10:41:27.186Z,0.90
2023-02-19T10:44:11.594Z,1.50
2023-02-19T10:46:43.422Z,1.00
2023-02-19T10:49:20.606Z,0.90
2023-02-19T10:51:47.279Z,0.90
2023-02-19T10:54:24.701Z,2.27
2023-02-19T10:56:50.773Z,1.33
2023-02-19T10:59:29.112Z,2.33
2023-02-19T11:02:00.297Z,0.90
2023-02-19T11:04:29.410Z,0.90
2023-02-19T11:06:56.733Z,0.87
2023-02-19T11:09:39.921Z,0.90
2023-02-19T11:12:08.420Z,1.00
2023-02-19T11:14:35.872Z,0.80
2023-02-19T11:17:04.851Z,0.80
2023-02-19T11:19:43.339Z,0.90
2023-02-19T11:22:20.244Z,0.83
2023-02-19T11:24:50.351Z,0.80
2023-02-19T11:27:19.561Z,0.80
2023-02-19T11:29:45.672Z,0.90
2023-02-19T11:32:23.356Z,1.93
2023-02-19T11:34:49.533Z,0.90
2023-02-19T11:37:17.760Z,1.20
2023-02-19T11:39:46.053Z,0.90
2023-02-19T11:42:15.374Z,0.80
2023-02-19T11:44:59.448Z,0.80
2023-02-19T11:47:53.414Z,0.80
2023-02-19T11:50:26.980Z,0.80
2023-02-19T11:53:02.123Z,0.80
2023-02-19T11:56:00.514Z,0.90
2023-02-19T11:58:44.472Z,1.10
2023-02-19T12:01:29.315Z,1.53
2023-02-19T12:04:25.840Z,1.23
2023-02-19T12:07:08.981Z,1.70
2023-02-19T12:09:38.093Z,4.57
2023-02-19T12:12:07.222Z,1.93
2023-02-19T12:14:39.290Z,1.70
2023-02-19T12:17:24.127Z,1.00
2023-02-19T12:20:13.413Z,2.00
2023-02-19T12:22:48.326Z,3.23
2023-02-19T12:25:42.690Z,2.60
2023-02-19T12:28:39.675Z,1.83
2023-02-19T12:31:22.987Z,2.20
2023-02-19T12:34:12.324Z,1.70
2023-02-19T12:37:09.390Z,1.83
2023-02-19T12:40:07.566Z,2.67
2023-02-19T12:42:55.884Z,1.83
2023-02-19T12:45:29.624Z,1.50
2023-02-19T12:48:17.923Z,1.40
2023-02-19T12:50:45.361Z,1.20
2023-02-19T12:53:41.284Z,1.60
2023-02-19T12:56:23.786Z,2.23
2023-02-19T12:59:13.617Z,1.10
2023-02-19T13:01:48.084Z,1.00
2023-02-19T13:04:40.565Z,1.43
2023-02-19T13:07:12.641Z,1.07
2023-02-19T13:09:43.383Z,0.90
2023-02-19T13:12:35.354Z,1.57
2023-02-19T13:15:14.206Z,0.90
2023-02-19T13:17:43.871Z,1.20
2023-02-19T13:20:21.983Z,1.80
2023-02-19T13:23:43.580Z,2.10
2023-02-19T13:26:19.179Z,1.90
2023-02-19T13:28:54.311Z,2.10
2023-02-19T13:31:29.226Z,2.20
2023-02-19T13:34:02.433Z,2.30
2023-02-19T13:36:29.346Z,2.95
2023-02-19T13:38:59.098Z,2.63
2023-02-19T13:41:25.225Z,2.13
2023-02-19T13:43:58.076Z,2.00
2023-02-19T13:46:25.145Z,2.20
2023-02-19T13:49:30.850Z,2.30
2023-02-19T13:52:29.267Z,2.30
2023-02-19T13:55:32.879Z,1.60
2023-02-19T13:58:33.115Z,1.83
2023-02-19T14:01:00.631Z,1.10
2023-02-19T14:03:42.044Z,2.43
2023-02-19T14:06:09.146Z,3.63
2023-02-19T14:08:50.668Z,2.00
2023-02-19T14:11:18.827Z,2.43
2023-02-19T14:13:51.031Z,1.70
2023-02-19T14:16:37.102Z,1.50
2023-02-19T14:19:11.752Z,1.60
2023-02-19T14:21:39.278Z,2.00
2023-02-19T14:24:10.676Z,2.03
2023-02-19T14:26:37.732Z,1.80
2023-02-19T14:29:06.613Z,1.40
2023-02-19T14:31:35.812Z,1.70
2023-02-19T14:34:24.091Z,2.03
2023-02-19T14:36:55.088Z,2.00
2023-02-19T14:39:28.203Z,2.23
2023-02-19T14:41:57.673Z,2.40
2023-02-19T14:44:29.713Z,1.70
2023-02-19T14:46:58.807Z,1.87
2023-02-19T14:49:41.921Z,1.30
2023-02-19T14:52:16.500Z,1.97
2023-02-19T14:54:47.783Z,2.00
2023-02-19T14:57:20.100Z,1.60
2023-02-19T14:59:59.982Z,1.33
2023-02-19T15:02:28.228Z,1.40
2023-02-19T15:04:54.506Z,1.53
2023-02-19T15:07:31.288Z,1.40
2023-02-19T15:10:05.186Z,1.93
2023-02-19T15:12:35.400Z,1.57
2023-02-19T15:15:03.267Z,1.50
2023-02-19T15:17:31.807Z,1.80
2023-02-19T15:20:02.399Z,1.97
2023-02-19T15:22:31.115Z,2.57
2023-02-19T15:25:04.669Z,2.30
2023-02-19T15:27:32.264Z,2.00
2023-02-19T15:29:58.394Z,2.50
2023-02-19T15:32:26.638Z,3.37
2023-02-19T15:34:57.821Z,4.00
2023-02-19T15:37:25.611Z,6.73
2023-02-19T15:39:52.591Z,4.40
2023-02-19T15:42:29.671Z,3.13
2023-02-19T15:45:14.377Z,2.73
2023-02-19T15:48:14.000Z,3.30
2023-02-19T15:50:44.276Z,3.10
2023-02-19T15:53:24.413Z,2.47
2023-02-19T15:56:05.665Z,2.90
2023-02-19T15:58:36.340Z,2.30
2023-02-19T16:01:12.139Z,2.10
2023-02-19T16:03:38.823Z,2.83
2023-02-19T16:06:10.680Z,2.53
2023-02-19T16:08:38.868Z,2.10
2023-02-19T16:11:24.326Z,2.97
2023-02-19T16:13:51.176Z,2.60
2023-02-19T16:16:22.939Z,2.20
2023-02-19T16:18:50.470Z,2.37
2023-02-19T16:21:21.116Z,2.70
2023-02-19T16:23:49.230Z,2.17
2023-02-19T16:26:15.415Z,1.97
2023-02-19T16:28:42.283Z,2.20
2023-02-19T16:31:10.918Z,2.70
2023-02-19T16:33:48.520Z,4.93
2023-02-19T16:36:37.186Z,6.07
2023-02-19T16:39:06.341Z,2.57
2023-02-19T16:41:58.309Z,2.37
2023-02-19T16:44:24.348Z,4.30
2023-02-19T16:46:52.518Z,3.50
2023-02-19T16:49:19.068Z,3.67
2023-02-19T16:51:45.845Z,3.10
2023-02-19T16:54:12.189Z,3.13
2023-02-19T16:56:38.622Z,3.30
2023-02-19T16:59:06.809Z,2.73
2023-02-19T17:01:33.865Z,2.90
2023-02-19T17:04:03.710Z,3.50
2023-02-19T17:06:32.031Z,3.67
2023-02-19T17:08:58.345Z,4.20
2023-02-19T17:11:24.722Z,4.00
2023-02-19T17:13:50.795Z,4.43
2023-02-19T17:16:19.229Z,4.10
2023-02-19T17:18:45.783Z,4.30
2023-02-19T17:21:12.167Z,3.43
2023-02-19T17:23:38.428Z,3.70
2023-02-19T17:26:04.494Z,3.60
2023-02-19T17:28:30.571Z,4.43
2023-02-19T17:30:56.650Z,4.30
2023-02-19T17:33:22.761Z,4.03
2023-02-19T17:35:48.818Z,3.50
2023-02-19T17:38:14.961Z,4.20
2023-02-19T17:40:41.027Z,3.37
2023-02-19T17:43:07.333Z,3.80
2023-02-19T17:45:33.547Z,4.10
2023-02-19T17:47:59.821Z,4.50
2023-02-19T17:50:31.067Z,4.50
2023-02-19T17:52:58.030Z,5.80
2023-02-19T17:55:24.713Z,4.93
2023-02-19T17:57:51.617Z,3.90
2023-02-19T18:00:23.527Z,3.57
2023-02-19T18:02:50.150Z,5.97
2023-02-19T18:05:16.697Z,4.67
2023-02-19T18:07:42.995Z,3.80
2023-02-19T18:10:09.433Z,5.33
2023-02-19T18:12:36.752Z,4.10
2023-02-19T18:15:03.083Z,7.03
2023-02-19T18:17:29.248Z,3.93
2023-02-19T18:19:55.379Z,3.80
2023-02-19T18:22:21.470Z,3.60
2023-02-19T18:24:48.990Z,6.87
2023-02-19T18:27:15.631Z,18.87
2023-02-19T18:29:41.727Z,11.93
2023-02-19T18:32:08.079Z,8.40
2023-02-19T18:34:34.186Z,9.27
2023-02-19T18:37:00.348Z,8.80
2023-02-19T18:39:26.442Z,8.07
2023-02-19T18:41:52.598Z,7.03
2023-02-19T18:44:20.294Z,7.30
2023-02-19T18:46:46.722Z,6.50
2023-02-19T18:49:12.982Z,7.67
2023-02-19T18:51:39.202Z,7.63
2023-02-19T18:54:07.072Z,7.97
2023-02-19T18:56:43.650Z,9.20
2023-02-19T18:59:10.436Z,9.53
2023-02-19T19:01:36.633Z,10.17
2023-02-19T19:04:03.029Z,10.90
2023-02-19T19:06:29.286Z,9.17
2023-02-19T19:08:55.382Z,11.23
2023-02-19T19:11:21.966Z,11.60
2023-02-19T19:13:48.174Z,11.93
2023-02-19T19:16:14.436Z,11.30
2023-02-19T19:18:40.582Z,11.10
2023-02-19T19:21:08.695Z,11.97
2023-02-19T19:23:35.915Z,13.20
2023-02-19T19:26:05.745Z,15.03
2023-02-19T19:28:32.040Z,12.63
2023-02-19T19:30:59.198Z,16.33
2023-02-19T19:33:28.168Z,12.43
2023-02-19T19:35:54.491Z,13.70
2023-02-19T19:38:20.546Z,12.30
2023-02-19T19:40:46.694Z,16.00
2023-02-19T19:43:12.836Z,12.37
2023-02-19T19:45:38.926Z,13.60
2023-02-19T19:48:05.375Z,11.60
2023-02-19T19:50:31.470Z,13.43
2023-02-19T19:52:57.591Z,14.60
2023-02-19T19:55:23.876Z,13.03
2023-02-19T19:57:50.124Z,14.33
2023-02-19T20:00:17.573Z,22.03
2023-02-19T20:02:45.587Z,15.97
2023-02-19T20:05:13.007Z,15.30
2023-02-19T20:07:39.470Z,25.57
2023-02-19T20:10:06.826Z,21.83
2023-02-19T20:12:33.263Z,14.10
2023-02-19T20:14:59.323Z,14.67
2023-02-19T20:17:28.063Z,17.60
2023-02-19T20:19:54.179Z,13.90
2023-02-19T20:22:20.240Z,13.40
2023-02-19T20:24:53.628Z,16.13
2023-02-19T20:27:21.063Z,15.17
2023-02-19T20:29:47.598Z,16.37
2023-02-19T20:32:17.771Z,13.77
2023-02-19T20:34:45.022Z,15.10
2023-02-19T20:37:11.094Z,16.63
2023-02-19T20:39:37.222Z,15.17
2023-02-19T20:42:03.808Z,13.53
2023-02-19T20:44:30.176Z,14.57
2023-02-19T20:46:57.504Z,16.17
2023-02-19T20:49:26.170Z,13.97
2023-02-19T20:51:58.146Z,14.73
2023-02-19T20:54:29.173Z,13.63
2023-02-19T20:56:57.511Z,14.23
2023-02-19T20:59:30.221Z,14.87
2023-02-19T21:01:57.913Z,15.30
2023-02-19T21:04:24.182Z,19.43
2023-02-19T21:06:51.599Z,16.13
2023-02-19T21:09:21.972Z,15.67
2023-02-19T21:11:48.594Z,14.47
2023-02-19T21:14:15.110Z,16.33
2023-02-19T21:16:41.195Z,13.83
2023-02-19T21:19:07.350Z,14.20
2023-02-19T21:21:34.620Z,15.17
2023-02-19T21:24:01.169Z,17.10
2023-02-19T21:26:35.271Z,14.30
2023-02-19T21:29:02.357Z,16.20
2023-02-19T21:31:40.466Z,16.00
2023-02-19T21:34:08.026Z,16.33
2023-02-19T21:36:34.957Z,16.27
2023-02-19T21:39:01.820Z,14.77
2023-02-19T21:41:28.107Z,12.57
2023-02-19T21:43:55.046Z,13.60
2023-02-19T21:46:21.971Z,10.67
2023-02-19T21:48:49.090Z,7.13
2023-02-19T21:51:15.980Z,5.83
2023-02-19T21:53:42.119Z,2.83
2023-02-19T21:56:08.504Z,3.20
2023-02-19T21:58:34.599Z,2.40
2023-02-19T22:01:00.800Z,1.80
2023-02-19T22:03:26.972Z,1.90
2023-02-19T22:05:53.999Z,1.80
2023-02-19T22:08:20.614Z,1.70
2023-02-19T22:10:46.746Z,1.50
2023-02-19T22:13:12.834Z,1.50
2023-02-19T22:15:38.929Z,4.10
2023-02-19T22:18:05.129Z,1.63
2023-02-19T22:20:31.201Z,1.43
2023-02-19T22:22:57.262Z,1.60
2023-02-19T22:25:23.277Z,1.60
2023-02-19T22:27:49.316Z,3.73
2023-02-19T22:30:15.606Z,1.30
2023-02-19T22:32:41.692Z,1.20
2023-02-19T22:35:07.771Z,1.30
2023-02-19T22:37:33.839Z,1.20
2023-02-19T22:40:00.118Z,2.30
2023-02-19T22:42:26.267Z,1.60
2023-02-19T22:44:52.388Z,1.60
2023-02-19T22:47:18.615Z,1.90
2023-02-19T22:49:44.822Z,1.80
2023-02-19T22:52:11.323Z,1.97
2023-02-19T22:54:38.504Z,1.93
2023-02-19T22:57:04.761Z,2.50
2023-02-19T22:59:31.246Z,2.53
2023-02-19T23:01:57.433Z,2.60
2023-02-19T23:04:24.483Z,2.70
2023-02-19T23:06:50.795Z,2.50
2023-02-19T23:09:23.608Z,3.00
2023-02-19T23:11:50.060Z,3.20
2023-02-19T23:14:17.976Z,2.80
2023-02-19T23:16:44.159Z,3.67
2023-02-19T23:19:13.321Z,3.93
2023-02-19T23:21:41.141Z,3.60
2023-02-19T23:24:07.679Z,3.47
2023-02-19T23:26:34.113Z,3.73
2023-02-19T23:29:00.398Z,3.67
2023-02-19T23:31:26.560Z,4.03
2023-02-19T23:33:54.108Z,3.93
2023-02-19T23:36:23.058Z,3.70
2023-02-19T23:38:49.316Z,3.97
2023-02-19T23:41:16.896Z,3.57
2023-02-19T23:43:43.472Z,4.33
2023-02-19T23:46:14.049Z,4.40
2023-02-19T23:48:40.292Z,4.13
2023-02-19T23:51:06.336Z,4.03
2023-02-19T23:53:32.413Z,5.93
2023-02-19T23:55:58.525Z,4.33
2023-02-19T23:58:24.670Z,9.37
